sensor_id;sensor_type;location;lat;lon;timestamp;temperature;humidity
46784;DHT22;32544;52.832;13.816;2023-11-21T00:00:39;23.50;52.00
46784;DHT22;32544;52.832;13.816;2023-11-21T00:01:40;23.50;52.10
46784;DHT22;32544;52.832;13.816;2023-11-21T00:02:41;23.50;52.10
46784;DHT22;32544;52.832;13.816;2023-11-21T00:03:41;23.50;52.10
46784;DHT22;32544;52.832;13.816;2023-11-21T00:04:42;23.50;52.10
46784;DHT22;32544;52.832;13.816;2023-11-21T00:05:43;23.50;52.10
46784;DHT22;32544;52.832;13.816;2023-11-21T00:06:43;23.50;52.70
46784;DHT22;32544;52.832;13.816;2023-11-21T00:07:47;23.50;52.10
46784;DHT22;32544;52.832;13.816;2023-11-21T00:08:48;23.50;52.10
46784;DHT22;32544;52.832;13.816;2023-11-21T00:09:48;23.40;52.10
46784;DHT22;32544;52.832;13.816;2023-11-21T00:10:49;23.40;52.10
46784;DHT22;32544;52.832;13.816;2023-11-21T00:11:49;23.40;52.10
46784;DHT22;32544;52.832;13.816;2023-11-21T00:12:50;23.40;52.10
46784;DHT22;32544;52.832;13.816;2023-11-21T00:13:51;23.40;52.10
46784;DHT22;32544;52.832;13.816;2023-11-21T00:14:51;23.40;52.10
46784;DHT22;32544;52.832;13.816;2023-11-21T00:15:52;23.40;52.20
46784;DHT22;32544;52.832;13.816;2023-11-21T00:16:52;23.40;52.20
46784;DHT22;32544;52.832;13.816;2023-11-21T00:17:53;23.40;52.10
46784;DHT22;32544;52.832;13.816;2023-11-21T00:18:54;23.40;52.20
46784;DHT22;32544;52.832;13.816;2023-11-21T00:19:54;23.40;52.20
46784;DHT22;32544;52.832;13.816;2023-11-21T00:20:55;23.40;52.20
46784;DHT22;32544;52.832;13.816;2023-11-21T00:21:55;23.40;52.20
46784;DHT22;32544;52.832;13.816;2023-11-21T00:22:58;23.40;52.20
46784;DHT22;32544;52.832;13.816;2023-11-21T00:23:59;23.40;52.20
46784;DHT22;32544;52.832;13.816;2023-11-21T00:25:00;23.40;52.20
46784;DHT22;32544;52.832;13.816;2023-11-21T00:26:01;23.40;52.20
46784;DHT22;32544;52.832;13.816;2023-11-21T00:27:01;23.40;52.20
46784;DHT22;32544;52.832;13.816;2023-11-21T00:28:02;23.40;52.20
46784;DHT22;32544;52.832;13.816;2023-11-21T00:29:03;23.40;52.30
46784;DHT22;32544;52.832;13.816;2023-11-21T00:30:04;23.30;52.20
46784;DHT22;32544;52.832;13.816;2023-11-21T00:31:06;23.30;52.20
46784;DHT22;32544;52.832;13.816;2023-11-21T00:32:06;23.30;52.20
46784;DHT22;32544;52.832;13.816;2023-11-21T00:33:07;23.30;52.20
46784;DHT22;32544;52.832;13.816;2023-11-21T00:34:08;23.30;52.20
46784;DHT22;32544;52.832;13.816;2023-11-21T00:35:08;23.30;52.20
46784;DHT22;32544;52.832;13.816;2023-11-21T00:36:09;23.30;52.20
46784;DHT22;32544;52.832;13.816;2023-11-21T00:37:10;23.30;52.20
46784;DHT22;32544;52.832;13.816;2023-11-21T00:38:10;23.30;52.20
46784;DHT22;32544;52.832;13.816;2023-11-21T00:39:11;23.30;52.20
46784;DHT22;32544;52.832;13.816;2023-11-21T00:40:12;23.30;52.20
46784;DHT22;32544;52.832;13.816;2023-11-21T00:41:13;23.30;52.30
46784;DHT22;32544;52.832;13.816;2023-11-21T00:42:13;23.30;52.30
46784;DHT22;32544;52.832;13.816;2023-11-21T00:43:14;23.20;52.20
46784;DHT22;32544;52.832;13.816;2023-11-21T00:44:15;23.30;52.30
46784;DHT22;32544;52.832;13.816;2023-11-21T00:45:16;23.20;52.90
46784;DHT22;32544;52.832;13.816;2023-11-21T00:46:17;23.30;52.30
46784;DHT22;32544;52.832;13.816;2023-11-21T00:47:17;23.30;52.30
46784;DHT22;32544;52.832;13.816;2023-11-21T00:48:18;23.30;52.30
46784;DHT22;32544;52.832;13.816;2023-11-21T00:49:19;23.30;52.30
46784;DHT22;32544;52.832;13.816;2023-11-21T00:50:21;23.20;52.20
46784;DHT22;32544;52.832;13.816;2023-11-21T00:51:22;23.20;52.30
46784;DHT22;32544;52.832;13.816;2023-11-21T00:52:22;23.20;52.20
46784;DHT22;32544;52.832;13.816;2023-11-21T00:53:23;23.20;52.20
46784;DHT22;32544;52.832;13.816;2023-11-21T00:54:23;23.20;52.90
46784;DHT22;32544;52.832;13.816;2023-11-21T00:55:24;23.20;52.90
46784;DHT22;32544;52.832;13.816;2023-11-21T00:56:26;23.20;52.30
46784;DHT22;32544;52.832;13.816;2023-11-21T00:57:27;23.20;52.30
46784;DHT22;32544;52.832;13.816;2023-11-21T00:58:27;23.20;52.30
46784;DHT22;32544;52.832;13.816;2023-11-21T00:59:28;23.20;52.30
46784;DHT22;32544;52.832;13.816;2023-11-21T01:00:29;23.20;52.30
46784;DHT22;32544;52.832;13.816;2023-11-21T01:01:30;23.20;52.30
46784;DHT22;32544;52.832;13.816;2023-11-21T01:02:30;23.20;52.30
46784;DHT22;32544;52.832;13.816;2023-11-21T01:03:31;23.20;52.90
46784;DHT22;32544;52.832;13.816;2023-11-21T01:04:32;23.20;52.30
46784;DHT22;32544;52.832;13.816;2023-11-21T01:05:32;23.20;52.30
46784;DHT22;32544;52.832;13.816;2023-11-21T01:06:33;23.20;52.20
46784;DHT22;32544;52.832;13.816;2023-11-21T01:07:34;23.20;52.30
46784;DHT22;32544;52.832;13.816;2023-11-21T01:08:34;23.20;52.90
46784;DHT22;32544;52.832;13.816;2023-11-21T01:09:36;23.20;52.30
46784;DHT22;32544;52.832;13.816;2023-11-21T01:10:36;23.20;52.30
46784;DHT22;32544;52.832;13.816;2023-11-21T01:11:37;23.20;52.30
46784;DHT22;32544;52.832;13.816;2023-11-21T01:12:38;23.20;52.30
46784;DHT22;32544;52.832;13.816;2023-11-21T01:13:39;23.20;52.30
46784;DHT22;32544;52.832;13.816;2023-11-21T01:14:39;23.20;52.30
46784;DHT22;32544;52.832;13.816;2023-11-21T01:15:41;23.20;52.20
46784;DHT22;32544;52.832;13.816;2023-11-21T01:16:42;23.20;52.20
46784;DHT22;32544;52.832;13.816;2023-11-21T01:17:42;23.20;52.30
46784;DHT22;32544;52.832;13.816;2023-11-21T01:18:43;23.20;52.30
46784;DHT22;32544;52.832;13.816;2023-11-21T01:19:43;23.20;52.30
46784;DHT22;32544;52.832;13.816;2023-11-21T01:20:44;23.20;52.50
46784;DHT22;32544;52.832;13.816;2023-11-21T01:21:47;23.20;52.20
46784;DHT22;32544;52.832;13.816;2023-11-21T01:22:47;23.20;52.30
46784;DHT22;32544;52.832;13.816;2023-11-21T01:23:49;23.20;52.30
46784;DHT22;32544;52.832;13.816;2023-11-21T01:24:50;23.20;52.20
46784;DHT22;32544;52.832;13.816;2023-11-21T01:25:51;23.20;52.30
46784;DHT22;32544;52.832;13.816;2023-11-21T01:26:52;23.20;52.30
46784;DHT22;32544;52.832;13.816;2023-11-21T01:27:52;23.20;52.20
46784;DHT22;32544;52.832;13.816;2023-11-21T01:28:53;23.20;52.20
46784;DHT22;32544;52.832;13.816;2023-11-21T01:29:54;23.20;52.20
46784;DHT22;32544;52.832;13.816;2023-11-21T01:30:56;23.20;52.30
46784;DHT22;32544;52.832;13.816;2023-11-21T01:31:56;23.20;52.30
46784;DHT22;32544;52.832;13.816;2023-11-21T01:32:58;23.10;52.20
46784;DHT22;32544;52.832;13.816;2023-11-21T01:33:59;23.20;52.30
46784;DHT22;32544;52.832;13.816;2023-11-21T01:34:59;23.10;52.30
46784;DHT22;32544;52.832;13.816;2023-11-21T01:36:00;23.10;52.20
46784;DHT22;32544;52.832;13.816;2023-11-21T01:37:01;23.20;52.30
46784;DHT22;32544;52.832;13.816;2023-11-21T01:38:01;23.20;52.30
46784;DHT22;32544;52.832;13.816;2023-11-21T01:39:02;23.10;52.30
46784;DHT22;32544;52.832;13.816;2023-11-21T01:40:08;23.10;52.20
46784;DHT22;32544;52.832;13.816;2023-11-21T01:41:14;23.10;52.20
46784;DHT22;32544;52.832;13.816;2023-11-21T01:42:14;23.10;52.20
46784;DHT22;32544;52.832;13.816;2023-11-21T01:43:15;23.10;52.20
46784;DHT22;32544;52.832;13.816;2023-11-21T01:44:17;23.20;52.30
46784;DHT22;32544;52.832;13.816;2023-11-21T01:45:19;23.10;52.20
46784;DHT22;32544;52.832;13.816;2023-11-21T01:46:20;23.10;52.20
46784;DHT22;32544;52.832;13.816;2023-11-21T01:47:21;23.10;52.20
46784;DHT22;32544;52.832;13.816;2023-11-21T01:48:22;23.10;52.20
46784;DHT22;32544;52.832;13.816;2023-11-21T01:49:22;23.10;52.20
46784;DHT22;32544;52.832;13.816;2023-11-21T01:50:23;23.10;52.20
46784;DHT22;32544;52.832;13.816;2023-11-21T01:51:24;23.10;52.20
46784;DHT22;32544;52.832;13.816;2023-11-21T01:52:26;23.10;52.20
46784;DHT22;32544;52.832;13.816;2023-11-21T01:53:29;23.10;52.20
46784;DHT22;32544;52.832;13.816;2023-11-21T01:54:30;23.10;52.20
46784;DHT22;32544;52.832;13.816;2023-11-21T01:55:31;23.10;52.20
46784;DHT22;32544;52.832;13.816;2023-11-21T01:56:34;23.10;52.20
46784;DHT22;32544;52.832;13.816;2023-11-21T01:57:37;23.10;52.20
46784;DHT22;32544;52.832;13.816;2023-11-21T01:58:38;23.10;52.20
46784;DHT22;32544;52.832;13.816;2023-11-21T01:59:39;23.10;52.20
46784;DHT22;32544;52.832;13.816;2023-11-21T02:00:42;23.10;52.20
46784;DHT22;32544;52.832;13.816;2023-11-21T02:01:43;23.10;52.20
46784;DHT22;32544;52.832;13.816;2023-11-21T02:03:45;23.10;52.20
46784;DHT22;32544;52.832;13.816;2023-11-21T02:04:46;23.10;52.20
46784;DHT22;32544;52.832;13.816;2023-11-21T02:05:46;23.10;52.20
46784;DHT22;32544;52.832;13.816;2023-11-21T02:06:47;23.10;52.20
46784;DHT22;32544;52.832;13.816;2023-11-21T02:07:48;23.10;52.20
46784;DHT22;32544;52.832;13.816;2023-11-21T02:08:49;23.10;52.20
46784;DHT22;32544;52.832;13.816;2023-11-21T02:09:50;23.10;52.20
46784;DHT22;32544;52.832;13.816;2023-11-21T02:10:51;23.10;52.20
46784;DHT22;32544;52.832;13.816;2023-11-21T02:11:53;23.10;52.20
46784;DHT22;32544;52.832;13.816;2023-11-21T02:12:54;23.10;52.20
46784;DHT22;32544;52.832;13.816;2023-11-21T02:13:58;23.10;52.20
46784;DHT22;32544;52.832;13.816;2023-11-21T02:15:00;23.10;52.20
46784;DHT22;32544;52.832;13.816;2023-11-21T02:16:01;23.10;52.20
46784;DHT22;32544;52.832;13.816;2023-11-21T02:17:01;23.10;52.20
46784;DHT22;32544;52.832;13.816;2023-11-21T02:18:05;23.10;52.20
46784;DHT22;32544;52.832;13.816;2023-11-21T02:19:07;23.10;52.20
46784;DHT22;32544;52.832;13.816;2023-11-21T02:20:10;23.10;52.20
46784;DHT22;32544;52.832;13.816;2023-11-21T02:21:16;23.10;52.20
46784;DHT22;32544;52.832;13.816;2023-11-21T02:22:17;23.10;52.20
46784;DHT22;32544;52.832;13.816;2023-11-21T02:23:19;23.10;52.20
46784;DHT22;32544;52.832;13.816;2023-11-21T02:24:22;23.10;52.20
46784;DHT22;32544;52.832;13.816;2023-11-21T02:25:24;23.10;52.20
46784;DHT22;32544;52.832;13.816;2023-11-21T02:26:25;23.10;52.20
46784;DHT22;32544;52.832;13.816;2023-11-21T02:27:26;23.10;52.20
46784;DHT22;32544;52.832;13.816;2023-11-21T02:28:27;23.10;52.20
46784;DHT22;32544;52.832;13.816;2023-11-21T02:29:28;23.10;52.20
46784;DHT22;32544;52.832;13.816;2023-11-21T02:30:28;23.10;52.20
46784;DHT22;32544;52.832;13.816;2023-11-21T02:31:30;23.10;52.20
46784;DHT22;32544;52.832;13.816;2023-11-21T02:32:33;23.10;52.20
46784;DHT22;32544;52.832;13.816;2023-11-21T02:33:34;23.10;52.20
46784;DHT22;32544;52.832;13.816;2023-11-21T02:34:35;23.10;52.10
46784;DHT22;32544;52.832;13.816;2023-11-21T02:35:35;23.10;52.10
46784;DHT22;32544;52.832;13.816;2023-11-21T02:36:36;23.10;52.10
46784;DHT22;32544;52.832;13.816;2023-11-21T02:37:37;23.10;52.10
46784;DHT22;32544;52.832;13.816;2023-11-21T02:38:39;23.10;52.10
46784;DHT22;32544;52.832;13.816;2023-11-21T02:39:39;23.10;52.10
46784;DHT22;32544;52.832;13.816;2023-11-21T02:40:40;23.10;52.10
46784;DHT22;32544;52.832;13.816;2023-11-21T02:41:40;23.10;52.10
46784;DHT22;32544;52.832;13.816;2023-11-21T02:42:41;23.10;52.10
46784;DHT22;32544;52.832;13.816;2023-11-21T02:43:42;23.10;52.10
46784;DHT22;32544;52.832;13.816;2023-11-21T02:44:42;23.10;52.10
46784;DHT22;32544;52.832;13.816;2023-11-21T02:45:43;23.10;52.10
46784;DHT22;32544;52.832;13.816;2023-11-21T02:46:43;23.10;52.10
46784;DHT22;32544;52.832;13.816;2023-11-21T02:47:44;23.10;52.10
46784;DHT22;32544;52.832;13.816;2023-11-21T02:48:45;23.10;52.10
46784;DHT22;32544;52.832;13.816;2023-11-21T02:49:45;23.10;52.20
46784;DHT22;32544;52.832;13.816;2023-11-21T02:50:46;23.10;52.10
46784;DHT22;32544;52.832;13.816;2023-11-21T02:51:48;23.10;52.10
46784;DHT22;32544;52.832;13.816;2023-11-21T02:52:49;23.10;52.10
46784;DHT22;32544;52.832;13.816;2023-11-21T02:53:49;23.00;52.10
46784;DHT22;32544;52.832;13.816;2023-11-21T02:54:51;23.10;52.20
46784;DHT22;32544;52.832;13.816;2023-11-21T02:55:52;23.10;52.10
46784;DHT22;32544;52.832;13.816;2023-11-21T02:56:53;23.10;52.10
46784;DHT22;32544;52.832;13.816;2023-11-21T02:57:54;23.10;52.10
46784;DHT22;32544;52.832;13.816;2023-11-21T02:58:57;23.00;52.00
46784;DHT22;32544;52.832;13.816;2023-11-21T02:59:58;23.10;52.10
46784;DHT22;32544;52.832;13.816;2023-11-21T03:01:00;23.10;52.20
46784;DHT22;32544;52.832;13.816;2023-11-21T03:02:01;23.10;52.10
46784;DHT22;32544;52.832;13.816;2023-11-21T03:03:01;23.00;52.00
46784;DHT22;32544;52.832;13.816;2023-11-21T03:04:02;23.10;52.10
46784;DHT22;32544;52.832;13.816;2023-11-21T03:05:02;23.00;52.10
46784;DHT22;32544;52.832;13.816;2023-11-21T03:06:05;23.00;52.10
46784;DHT22;32544;52.832;13.816;2023-11-21T03:07:06;23.10;52.10
46784;DHT22;32544;52.832;13.816;2023-11-21T03:08:07;23.00;52.00
46784;DHT22;32544;52.832;13.816;2023-11-21T03:09:07;23.00;52.00
46784;DHT22;32544;52.832;13.816;2023-11-21T03:10:08;23.00;52.10
46784;DHT22;32544;52.832;13.816;2023-11-21T03:11:09;23.00;52.10
46784;DHT22;32544;52.832;13.816;2023-11-21T03:12:10;23.00;52.00
46784;DHT22;32544;52.832;13.816;2023-11-21T03:13:12;23.00;52.00
46784;DHT22;32544;52.832;13.816;2023-11-21T03:14:13;23.00;52.00
46784;DHT22;32544;52.832;13.816;2023-11-21T03:15:13;23.10;52.10
46784;DHT22;32544;52.832;13.816;2023-11-21T03:16:15;23.00;52.00
46784;DHT22;32544;52.832;13.816;2023-11-21T03:17:16;23.00;52.00
46784;DHT22;32544;52.832;13.816;2023-11-21T03:18:16;23.00;52.00
46784;DHT22;32544;52.832;13.816;2023-11-21T03:19:17;23.00;52.10
46784;DHT22;32544;52.832;13.816;2023-11-21T03:20:18;23.00;52.00
46784;DHT22;32544;52.832;13.816;2023-11-21T03:21:19;23.00;52.00
46784;DHT22;32544;52.832;13.816;2023-11-21T03:22:19;23.00;52.00
46784;DHT22;32544;52.832;13.816;2023-11-21T03:23:20;23.00;52.00
46784;DHT22;32544;52.832;13.816;2023-11-21T03:24:21;23.00;52.00
46784;DHT22;32544;52.832;13.816;2023-11-21T03:25:22;23.00;52.00
46784;DHT22;32544;52.832;13.816;2023-11-21T03:26:24;23.00;52.00
46784;DHT22;32544;52.832;13.816;2023-11-21T03:27:25;23.00;52.00
46784;DHT22;32544;52.832;13.816;2023-11-21T03:28:25;23.00;52.00
46784;DHT22;32544;52.832;13.816;2023-11-21T03:29:27;23.00;52.00
46784;DHT22;32544;52.832;13.816;2023-11-21T03:30:27;23.00;52.00
46784;DHT22;32544;52.832;13.816;2023-11-21T03:31:28;23.00;52.00
46784;DHT22;32544;52.832;13.816;2023-11-21T03:32:28;23.00;52.00
46784;DHT22;32544;52.832;13.816;2023-11-21T03:33:29;23.00;52.00
46784;DHT22;32544;52.832;13.816;2023-11-21T03:34:30;23.00;52.00
46784;DHT22;32544;52.832;13.816;2023-11-21T03:35:31;23.00;52.00
46784;DHT22;32544;52.832;13.816;2023-11-21T03:36:32;23.00;52.00
46784;DHT22;32544;52.832;13.816;2023-11-21T03:37:32;23.00;52.00
46784;DHT22;32544;52.832;13.816;2023-11-21T03:38:33;23.00;52.00
46784;DHT22;32544;52.832;13.816;2023-11-21T03:39:33;23.00;52.00
46784;DHT22;32544;52.832;13.816;2023-11-21T03:40:34;23.00;52.00
46784;DHT22;32544;52.832;13.816;2023-11-21T03:41:35;23.00;52.00
46784;DHT22;32544;52.832;13.816;2023-11-21T03:42:36;23.00;52.00
46784;DHT22;32544;52.832;13.816;2023-11-21T03:43:37;23.00;52.00
46784;DHT22;32544;52.832;13.816;2023-11-21T03:44:37;23.00;52.00
46784;DHT22;32544;52.832;13.816;2023-11-21T03:45:38;23.00;52.00
46784;DHT22;32544;52.832;13.816;2023-11-21T03:46:40;23.00;51.90
46784;DHT22;32544;52.832;13.816;2023-11-21T03:47:41;23.00;51.90
46784;DHT22;32544;52.832;13.816;2023-11-21T03:48:42;23.00;51.90
46784;DHT22;32544;52.832;13.816;2023-11-21T03:49:43;23.00;51.90
46784;DHT22;32544;52.832;13.816;2023-11-21T03:50:43;23.00;51.90
46784;DHT22;32544;52.832;13.816;2023-11-21T03:51:44;23.00;51.90
46784;DHT22;32544;52.832;13.816;2023-11-21T03:52:45;23.00;51.90
46784;DHT22;32544;52.832;13.816;2023-11-21T03:53:45;23.00;52.00
46784;DHT22;32544;52.832;13.816;2023-11-21T03:54:46;23.00;51.90
46784;DHT22;32544;52.832;13.816;2023-11-21T03:55:46;23.00;51.90
46784;DHT22;32544;52.832;13.816;2023-11-21T03:56:47;23.00;51.90
46784;DHT22;32544;52.832;13.816;2023-11-21T03:57:49;23.00;51.90
46784;DHT22;32544;52.832;13.816;2023-11-21T03:58:50;23.00;51.90
46784;DHT22;32544;52.832;13.816;2023-11-21T03:59:50;23.00;51.90
46784;DHT22;32544;52.832;13.816;2023-11-21T04:00:51;23.00;51.90
46784;DHT22;32544;52.832;13.816;2023-11-21T04:01:51;23.00;51.90
46784;DHT22;32544;52.832;13.816;2023-11-21T04:02:53;23.00;51.90
46784;DHT22;32544;52.832;13.816;2023-11-21T04:03:53;23.00;51.90
46784;DHT22;32544;52.832;13.816;2023-11-21T04:04:54;23.00;51.90
46784;DHT22;32544;52.832;13.816;2023-11-21T04:05:54;23.00;51.90
46784;DHT22;32544;52.832;13.816;2023-11-21T04:06:55;23.00;51.80
46784;DHT22;32544;52.832;13.816;2023-11-21T04:07:56;23.00;51.90
46784;DHT22;32544;52.832;13.816;2023-11-21T04:08:57;23.00;51.90
46784;DHT22;32544;52.832;13.816;2023-11-21T04:09:57;23.00;51.80
46784;DHT22;32544;52.832;13.816;2023-11-21T04:10:58;23.00;51.80
46784;DHT22;32544;52.832;13.816;2023-11-21T04:11:58;23.00;51.80
46784;DHT22;32544;52.832;13.816;2023-11-21T04:12:59;23.00;51.80
46784;DHT22;32544;52.832;13.816;2023-11-21T04:14:00;23.00;51.80
46784;DHT22;32544;52.832;13.816;2023-11-21T04:15:01;23.00;51.80
46784;DHT22;32544;52.832;13.816;2023-11-21T04:16:02;23.00;51.80
46784;DHT22;32544;52.832;13.816;2023-11-21T04:17:03;23.00;51.80
46784;DHT22;32544;52.832;13.816;2023-11-21T04:18:04;23.00;51.80
46784;DHT22;32544;52.832;13.816;2023-11-21T04:19:05;23.00;51.80
46784;DHT22;32544;52.832;13.816;2023-11-21T04:20:05;23.00;51.80
46784;DHT22;32544;52.832;13.816;2023-11-21T04:21:09;23.00;51.90
46784;DHT22;32544;52.832;13.816;2023-11-21T04:22:09;23.00;51.80
46784;DHT22;32544;52.832;13.816;2023-11-21T04:23:10;23.00;51.90
46784;DHT22;32544;52.832;13.816;2023-11-21T04:24:14;23.00;51.90
46784;DHT22;32544;52.832;13.816;2023-11-21T04:25:14;23.00;51.90
46784;DHT22;32544;52.832;13.816;2023-11-21T04:26:15;23.00;51.80
46784;DHT22;32544;52.832;13.816;2023-11-21T04:27:16;23.00;51.80
46784;DHT22;32544;52.832;13.816;2023-11-21T04:28:18;23.00;51.90
46784;DHT22;32544;52.832;13.816;2023-11-21T04:29:19;23.00;51.80
46784;DHT22;32544;52.832;13.816;2023-11-21T04:30:20;23.00;51.90
46784;DHT22;32544;52.832;13.816;2023-11-21T04:31:21;23.00;51.80
46784;DHT22;32544;52.832;13.816;2023-11-21T04:32:21;23.00;51.90
46784;DHT22;32544;52.832;13.816;2023-11-21T04:33:22;23.00;51.80
46784;DHT22;32544;52.832;13.816;2023-11-21T04:34:22;23.00;51.90
46784;DHT22;32544;52.832;13.816;2023-11-21T04:35:23;23.00;51.90
46784;DHT22;32544;52.832;13.816;2023-11-21T04:36:24;23.00;51.80
46784;DHT22;32544;52.832;13.816;2023-11-21T04:37:24;23.00;51.90
46784;DHT22;32544;52.832;13.816;2023-11-21T04:38:25;23.00;51.90
46784;DHT22;32544;52.832;13.816;2023-11-21T04:39:25;23.00;51.90
46784;DHT22;32544;52.832;13.816;2023-11-21T04:40:26;23.00;51.90
46784;DHT22;32544;52.832;13.816;2023-11-21T04:41:27;23.00;51.80
46784;DHT22;32544;52.832;13.816;2023-11-21T04:42:28;23.00;51.90
46784;DHT22;32544;52.832;13.816;2023-11-21T04:43:29;23.00;51.80
46784;DHT22;32544;52.832;13.816;2023-11-21T04:44:29;23.00;51.90
46784;DHT22;32544;52.832;13.816;2023-11-21T04:45:30;23.00;51.90
46784;DHT22;32544;52.832;13.816;2023-11-21T04:46:31;23.00;51.80
46784;DHT22;32544;52.832;13.816;2023-11-21T04:47:32;23.00;51.80
46784;DHT22;32544;52.832;13.816;2023-11-21T04:48:33;23.00;51.80
46784;DHT22;32544;52.832;13.816;2023-11-21T04:49:33;23.00;51.80
46784;DHT22;32544;52.832;13.816;2023-11-21T04:50:34;23.00;51.90
46784;DHT22;32544;52.832;13.816;2023-11-21T04:51:35;23.00;51.80
46784;DHT22;32544;52.832;13.816;2023-11-21T04:52:36;23.00;51.90
46784;DHT22;32544;52.832;13.816;2023-11-21T04:53:37;23.00;51.80
46784;DHT22;32544;52.832;13.816;2023-11-21T04:54:38;23.00;51.80
46784;DHT22;32544;52.832;13.816;2023-11-21T04:55:40;23.00;51.80
46784;DHT22;32544;52.832;13.816;2023-11-21T04:56:41;23.00;51.90
46784;DHT22;32544;52.832;13.816;2023-11-21T04:57:42;23.00;51.80
46784;DHT22;32544;52.832;13.816;2023-11-21T04:58:43;23.00;51.80
46784;DHT22;32544;52.832;13.816;2023-11-21T04:59:44;23.00;51.80
46784;DHT22;32544;52.832;13.816;2023-11-21T05:00:44;23.00;51.80
46784;DHT22;32544;52.832;13.816;2023-11-21T05:01:45;23.00;51.80
46784;DHT22;32544;52.832;13.816;2023-11-21T05:02:45;23.00;51.80
46784;DHT22;32544;52.832;13.816;2023-11-21T05:03:47;23.00;51.80
46784;DHT22;32544;52.832;13.816;2023-11-21T05:04:47;23.00;51.80
46784;DHT22;32544;52.832;13.816;2023-11-21T05:05:48;23.00;51.90
46784;DHT22;32544;52.832;13.816;2023-11-21T05:06:49;23.00;51.80
46784;DHT22;32544;52.832;13.816;2023-11-21T05:07:50;23.00;51.80
46784;DHT22;32544;52.832;13.816;2023-11-21T05:08:51;23.00;51.80
46784;DHT22;32544;52.832;13.816;2023-11-21T05:09:51;23.00;51.80
46784;DHT22;32544;52.832;13.816;2023-11-21T05:10:52;23.00;51.80
46784;DHT22;32544;52.832;13.816;2023-11-21T05:11:54;23.00;51.80
46784;DHT22;32544;52.832;13.816;2023-11-21T05:12:54;23.00;51.80
46784;DHT22;32544;52.832;13.816;2023-11-21T05:13:55;23.00;51.80
46784;DHT22;32544;52.832;13.816;2023-11-21T05:14:57;23.00;51.90
46784;DHT22;32544;52.832;13.816;2023-11-21T05:15:58;23.00;51.80
46784;DHT22;32544;52.832;13.816;2023-11-21T05:16:59;23.00;51.80
46784;DHT22;32544;52.832;13.816;2023-11-21T05:17:59;23.00;51.90
46784;DHT22;32544;52.832;13.816;2023-11-21T05:19:00;23.00;51.90
46784;DHT22;32544;52.832;13.816;2023-11-21T05:20:01;23.00;51.80
46784;DHT22;32544;52.832;13.816;2023-11-21T05:21:08;23.00;51.80
46784;DHT22;32544;52.832;13.816;2023-11-21T05:22:10;23.00;51.90
46784;DHT22;32544;52.832;13.816;2023-11-21T05:23:11;23.00;51.90
46784;DHT22;32544;52.832;13.816;2023-11-21T05:24:12;23.00;51.90
46784;DHT22;32544;52.832;13.816;2023-11-21T05:25:12;23.00;51.80
46784;DHT22;32544;52.832;13.816;2023-11-21T05:26:13;23.00;51.80
46784;DHT22;32544;52.832;13.816;2023-11-21T05:27:14;23.00;51.90
46784;DHT22;32544;52.832;13.816;2023-11-21T05:28:14;23.00;51.80
46784;DHT22;32544;52.832;13.816;2023-11-21T05:29:15;23.00;51.80
46784;DHT22;32544;52.832;13.816;2023-11-21T05:30:15;23.00;51.80
46784;DHT22;32544;52.832;13.816;2023-11-21T05:31:16;23.00;51.80
46784;DHT22;32544;52.832;13.816;2023-11-21T05:32:16;23.00;51.90
46784;DHT22;32544;52.832;13.816;2023-11-21T05:33:17;23.00;51.90
46784;DHT22;32544;52.832;13.816;2023-11-21T05:34:19;23.00;51.90
46784;DHT22;32544;52.832;13.816;2023-11-21T05:35:21;23.00;51.80
46784;DHT22;32544;52.832;13.816;2023-11-21T05:36:21;23.00;51.80
46784;DHT22;32544;52.832;13.816;2023-11-21T05:37:22;23.00;51.80
46784;DHT22;32544;52.832;13.816;2023-11-21T05:38:23;23.00;51.90
46784;DHT22;32544;52.832;13.816;2023-11-21T05:39:24;23.00;51.80
46784;DHT22;32544;52.832;13.816;2023-11-21T05:40:25;23.00;51.80
46784;DHT22;32544;52.832;13.816;2023-11-21T05:41:29;23.00;51.80
46784;DHT22;32544;52.832;13.816;2023-11-21T05:42:30;23.00;51.80
46784;DHT22;32544;52.832;13.816;2023-11-21T05:43:31;23.00;51.80
46784;DHT22;32544;52.832;13.816;2023-11-21T05:44:32;23.00;51.90
46784;DHT22;32544;52.832;13.816;2023-11-21T05:45:35;23.00;51.80
46784;DHT22;32544;52.832;13.816;2023-11-21T05:46:35;23.00;51.80
46784;DHT22;32544;52.832;13.816;2023-11-21T05:47:45;23.00;51.80
46784;DHT22;32544;52.832;13.816;2023-11-21T05:48:46;23.00;51.80
46784;DHT22;32544;52.832;13.816;2023-11-21T05:49:47;23.00;51.80
46784;DHT22;32544;52.832;13.816;2023-11-21T05:50:50;23.00;51.80
46784;DHT22;32544;52.832;13.816;2023-11-21T05:51:51;23.00;51.80
46784;DHT22;32544;52.832;13.816;2023-11-21T05:52:54;23.00;51.80
46784;DHT22;32544;52.832;13.816;2023-11-21T05:53:54;23.00;51.80
46784;DHT22;32544;52.832;13.816;2023-11-21T05:54:55;23.00;51.80
46784;DHT22;32544;52.832;13.816;2023-11-21T05:55:56;23.00;51.80
46784;DHT22;32544;52.832;13.816;2023-11-21T05:56:56;23.00;51.80
46784;DHT22;32544;52.832;13.816;2023-11-21T05:57:57;23.00;51.80
46784;DHT22;32544;52.832;13.816;2023-11-21T05:58:57;23.00;51.80
46784;DHT22;32544;52.832;13.816;2023-11-21T05:59:58;23.00;51.80
46784;DHT22;32544;52.832;13.816;2023-11-21T06:00:58;23.00;51.80
46784;DHT22;32544;52.832;13.816;2023-11-21T06:01:59;23.00;51.80
46784;DHT22;32544;52.832;13.816;2023-11-21T06:03:00;23.00;51.80
46784;DHT22;32544;52.832;13.816;2023-11-21T06:04:00;23.00;51.80
46784;DHT22;32544;52.832;13.816;2023-11-21T06:05:01;23.00;51.80
46784;DHT22;32544;52.832;13.816;2023-11-21T06:06:01;23.00;51.80
46784;DHT22;32544;52.832;13.816;2023-11-21T06:07:02;23.00;51.80
46784;DHT22;32544;52.832;13.816;2023-11-21T06:08:03;23.00;51.80
46784;DHT22;32544;52.832;13.816;2023-11-21T06:09:03;23.00;51.80
46784;DHT22;32544;52.832;13.816;2023-11-21T06:10:07;23.00;51.80
46784;DHT22;32544;52.832;13.816;2023-11-21T06:11:10;23.00;51.80
46784;DHT22;32544;52.832;13.816;2023-11-21T06:12:12;23.00;51.80
46784;DHT22;32544;52.832;13.816;2023-11-21T06:13:12;23.00;51.90
46784;DHT22;32544;52.832;13.816;2023-11-21T06:14:13;23.00;51.80
46784;DHT22;32544;52.832;13.816;2023-11-21T06:15:13;23.00;51.80
46784;DHT22;32544;52.832;13.816;2023-11-21T06:16:14;23.00;51.80
46784;DHT22;32544;52.832;13.816;2023-11-21T06:17:16;23.00;51.90
46784;DHT22;32544;52.832;13.816;2023-11-21T06:18:18;23.00;51.80
46784;DHT22;32544;52.832;13.816;2023-11-21T06:19:19;23.00;51.80
46784;DHT22;32544;52.832;13.816;2023-11-21T06:20:20;23.00;51.80